createdAt,value
2023-04-18T00:01:51.902Z,9.40
2023-04-18T00:06:47.176Z,8.47
2023-04-18T00:11:39.690Z,10.37
2023-04-18T00:16:33.080Z,10.07
2023-04-18T00:21:26.449Z,11.00
2023-04-18T00:26:20.359Z,10.47
2023-04-18T00:31:14.555Z,11.03
2023-04-18T00:36:07.495Z,9.57
2023-04-18T00:40:59.979Z,11.53
2023-04-18T00:45:54.014Z,10.70
2023-04-18T00:50:46.944Z,10.57
2023-04-18T00:55:39.892Z,11.03
2023-04-18T01:00:32.438Z,11.40
2023-04-18T01:05:27.335Z,12.07
2023-04-18T01:10:20.311Z,12.17
2023-04-18T01:15:15.837Z,13.03
2023-04-18T01:20:09.300Z,12.60
2023-04-18T01:25:07.461Z,13.10
2023-04-18T01:29:59.994Z,11.73
2023-04-18T01:34:55.650Z,9.30
2023-04-18T01:39:48.759Z,12.77
2023-04-18T01:44:43.167Z,13.10
2023-04-18T01:49:35.799Z,14.53
2023-04-18T01:54:28.355Z,13.87
2023-04-18T01:59:20.878Z,15.80
2023-04-18T02:04:15.140Z,15.97
2023-04-18T02:09:07.982Z,17.03
2023-04-18T02:14:00.555Z,16.17
2023-04-18T02:18:53.471Z,18.27
2023-04-18T02:23:47.386Z,18.13
2023-04-18T02:28:40.017Z,19.70
2023-04-18T02:33:32.586Z,20.87
2023-04-18T02:38:25.207Z,19.00
2023-04-18T02:43:19.482Z,22.10
2023-04-18T02:48:12.666Z,23.30
2023-04-18T02:53:05.431Z,19.83
2023-04-18T02:58:11.335Z,18.97
2023-04-18T03:03:44.006Z,22.00
2023-04-18T03:08:48.285Z,20.57
2023-04-18T03:13:41.739Z,20.67
2023-04-18T03:18:34.446Z,21.47
2023-04-18T03:23:29.507Z,22.13
2023-04-18T03:28:22.241Z,22.33
2023-04-18T03:33:17.063Z,21.17
2023-04-18T03:38:13.287Z,21.40
2023-04-18T03:43:07.383Z,21.60
2023-04-18T03:48:00.581Z,11.90
2023-04-18T03:52:54.574Z,20.27
2023-04-18T03:57:47.254Z,20.63
2023-04-18T04:02:48.872Z,19.80
2023-04-18T04:07:46.431Z,20.07
2023-04-18T04:12:39.200Z,22.37
2023-04-18T04:17:32.341Z,20.50
2023-04-18T04:22:26.745Z,20.50
2023-04-18T04:27:20.486Z,20.97
2023-04-18T04:32:13.847Z,17.20
2023-04-18T04:37:06.756Z,42.10
2023-04-18T04:42:09.633Z,19.90
2023-04-18T04:47:16.205Z,20.97
2023-04-18T04:52:09.916Z,18.80
2023-04-18T04:57:02.671Z,20.00
2023-04-18T05:01:58.158Z,16.60
2023-04-18T05:06:50.909Z,19.00
2023-04-18T05:11:43.531Z,19.73
2023-04-18T05:16:36.432Z,20.33
2023-04-18T05:21:31.326Z,27.60
2023-04-18T05:26:24.336Z,22.70
2023-04-18T05:31:16.933Z,21.50
2023-04-18T05:36:09.683Z,19.80
2023-04-18T05:41:03.529Z,19.13
2023-04-18T05:45:57.731Z,20.43
2023-04-18T05:50:50.500Z,19.60
2023-04-18T05:55:43.204Z,19.73
2023-04-18T06:00:37.135Z,19.30
2023-04-18T06:05:30.276Z,19.97
2023-04-18T06:10:23.002Z,18.30
2023-04-18T06:15:15.722Z,19.60
2023-04-18T06:20:10.289Z,19.57
2023-04-18T06:25:03.298Z,18.50
2023-04-18T06:29:55.923Z,19.60
2023-04-18T06:34:48.467Z,18.40
2023-04-18T06:39:42.457Z,20.80
2023-04-18T06:44:35.924Z,19.23
2023-04-18T06:49:28.481Z,19.50
2023-04-18T06:54:21.151Z,17.97
2023-04-18T06:59:15.068Z,19.40
2023-04-18T07:04:07.780Z,18.47
2023-04-18T07:09:01.513Z,17.80
2023-04-18T07:13:54.150Z,16.50
2023-04-18T07:18:48.076Z,16.50
2023-04-18T07:23:40.614Z,16.33
2023-04-18T07:28:33.612Z,15.47
2023-04-18T07:33:26.281Z,16.57
2023-04-18T07:38:20.556Z,16.40
2023-04-18T07:43:13.284Z,13.30
2023-04-18T07:48:06.450Z,14.27
2023-04-18T07:52:59.072Z,17.80
2023-04-18T07:57:53.127Z,15.30
2023-04-18T08:02:45.821Z,13.63
2023-04-18T08:07:38.534Z,15.20
2023-04-18T08:12:31.216Z,10.60
2023-04-18T08:17:25.209Z,13.37
2023-04-18T08:22:17.749Z,15.80
2023-04-18T08:27:10.384Z,13.33
2023-04-18T08:32:03.100Z,17.37
2023-04-18T08:36:57.096Z,14.90
2023-04-18T08:41:53.724Z,14.67
2023-04-18T08:46:46.436Z,13.00
2023-04-18T08:51:40.242Z,15.50
2023-04-18T08:56:37.356Z,15.27
2023-04-18T09:01:48.410Z,13.57
2023-04-18T09:06:52.457Z,16.00
2023-04-18T09:11:46.341Z,13.20
2023-04-18T09:16:46.705Z,15.70
2023-04-18T09:21:40.384Z,13.00
2023-04-18T09:26:36.954Z,13.30
2023-04-18T09:31:31.076Z,13.70
2023-04-18T09:36:24.671Z,14.63
2023-04-18T09:41:20.762Z,12.23
2023-04-18T09:46:14.439Z,15.13
2023-04-18T09:51:09.142Z,13.83
2023-04-18T09:56:02.378Z,14.50
2023-04-18T10:00:55.148Z,14.27
2023-04-18T10:05:48.329Z,13.50
2023-04-18T10:10:42.527Z,13.53
2023-04-18T10:15:35.663Z,14.73
2023-04-18T10:20:32.610Z,13.90
2023-04-18T10:25:50.707Z,13.00
2023-04-18T10:30:52.103Z,14.20
2023-04-18T10:35:56.770Z,13.13
2023-04-18T10:40:50.783Z,14.43
2023-04-18T10:45:43.377Z,12.97
2023-04-18T10:50:35.952Z,13.17
2023-04-18T10:55:29.908Z,14.00
2023-04-18T11:00:24.218Z,13.90
2023-04-18T11:05:20.000Z,14.03
2023-04-18T11:10:13.518Z,13.77
2023-04-18T11:15:10.790Z,14.33
2023-04-18T11:20:09.043Z,13.47
2023-04-18T11:25:02.114Z,12.47
2023-04-18T11:29:54.973Z,13.77
2023-04-18T11:34:47.590Z,14.57
2023-04-18T11:39:44.077Z,14.77
2023-04-18T11:44:39.693Z,13.57
2023-04-18T11:49:33.100Z,13.80
2023-04-18T11:54:38.954Z,12.90
2023-04-18T11:59:32.954Z,12.17
2023-04-18T12:04:25.691Z,14.17
2023-04-18T12:09:19.225Z,13.73
2023-04-18T12:14:20.451Z,13.00
2023-04-18T12:19:15.226Z,13.10
2023-04-18T12:24:15.380Z,13.03
2023-04-18T12:29:08.063Z,12.57
2023-04-18T12:34:00.599Z,13.03
2023-04-18T12:38:54.538Z,13.03
2023-04-18T12:43:47.120Z,12.73
2023-04-18T12:48:39.775Z,11.10
2023-04-18T12:53:32.280Z,13.37
2023-04-18T12:58:26.211Z,11.90
2023-04-18T13:03:18.958Z,11.40
2023-04-18T13:08:17.054Z,12.00
2023-04-18T13:13:10.710Z,13.17
2023-04-18T13:18:06.643Z,13.40
2023-04-18T13:22:59.522Z,12.50
2023-04-18T13:27:52.132Z,11.63
2023-04-18T13:32:44.762Z,12.90
2023-04-18T13:37:38.843Z,12.23
2023-04-18T13:42:31.442Z,9.90
2023-04-18T13:47:23.982Z,11.03
2023-04-18T13:52:17.458Z,9.37
2023-04-18T13:57:12.569Z,10.37
2023-04-18T14:02:05.580Z,10.80
2023-04-18T14:06:58.621Z,10.57
2023-04-18T14:11:52.054Z,10.43
2023-04-18T14:16:46.223Z,9.20
2023-04-18T14:21:39.224Z,9.93
2023-04-18T14:26:32.070Z,9.07
2023-04-18T14:31:28.345Z,8.60
2023-04-18T14:36:28.212Z,8.67
2023-04-18T14:41:22.073Z,7.60
2023-04-18T14:46:16.862Z,8.40
2023-04-18T14:51:10.886Z,6.73
2023-04-18T14:56:08.953Z,6.47
2023-04-18T15:01:02.647Z,5.87
2023-04-18T15:06:02.697Z,5.23
2023-04-18T15:11:01.040Z,5.50
2023-04-18T15:16:29.866Z,6.50
2023-04-18T15:21:32.428Z,6.00
2023-04-18T15:32:00.415Z,6.50
2023-04-18T15:37:17.464Z,6.70
2023-04-18T15:42:20.019Z,6.60
2023-04-18T15:47:18.615Z,4.47
2023-04-18T15:52:20.956Z,5.30
2023-04-18T15:57:26.007Z,5.73
2023-04-18T16:02:23.554Z,6.03
2023-04-18T16:07:40.915Z,6.63
2023-04-18T16:12:45.220Z,6.43
2023-04-18T16:17:43.215Z,4.73
2023-04-18T16:22:42.603Z,4.90
2023-04-18T16:28:05.121Z,4.33
2023-04-18T16:33:02.635Z,5.30
2023-04-18T16:38:15.154Z,4.70
2023-04-18T16:43:33.872Z,4.37
2023-04-18T16:48:59.755Z,4.40
2023-04-18T16:53:59.671Z,4.73
2023-04-18T16:58:53.712Z,4.87
2023-04-18T17:04:02.512Z,5.17
2023-04-18T17:09:12.544Z,4.70
2023-04-18T17:14:19.774Z,3.80
2023-04-18T17:19:33.094Z,4.57
2023-04-18T17:24:27.459Z,5.00
2023-04-18T17:29:21.001Z,4.20
2023-04-18T17:34:13.709Z,5.00
2023-04-18T17:39:07.625Z,4.90
2023-04-18T17:44:40.104Z,4.43
2023-04-18T17:49:34.877Z,4.80
2023-04-18T17:54:27.522Z,6.73
2023-04-18T17:59:20.171Z,5.10
2023-04-18T18:04:12.971Z,5.47
2023-04-18T18:09:07.936Z,3.43
2023-04-18T18:14:06.675Z,5.00
2023-04-18T18:19:12.290Z,4.40
2023-04-18T18:24:19.163Z,4.73
2023-04-18T18:29:15.859Z,4.47
2023-04-18T18:34:25.175Z,37.83
2023-04-18T18:39:32.312Z,7.30
2023-04-18T18:44:25.299Z,6.07
2023-04-18T18:49:18.150Z,8.40
2023-04-18T18:54:11.249Z,9.60
2023-04-18T18:59:05.345Z,7.43
2023-04-18T19:03:58.194Z,7.17
2023-04-18T19:08:51.261Z,7.63
2023-04-18T19:13:44.110Z,7.67
2023-04-18T19:18:38.252Z,7.30
2023-04-18T19:23:31.160Z,7.70
2023-04-18T19:28:24.024Z,7.20
2023-04-18T19:33:17.223Z,8.07
2023-04-18T19:38:11.690Z,7.40
2023-04-18T19:43:04.524Z,7.50
2023-04-18T19:47:57.423Z,8.20
2023-04-18T19:52:50.165Z,8.03
2023-04-18T19:57:44.323Z,8.10
2023-04-18T20:02:37.387Z,21.00
2023-04-18T20:07:30.217Z,7.87
2023-04-18T20:12:23.467Z,7.50
2023-04-18T20:17:18.461Z,9.80
2023-04-18T20:22:11.302Z,10.20
2023-04-18T20:27:03.980Z,10.07
2023-04-18T20:31:57.873Z,11.57
2023-04-18T20:36:52.549Z,12.43
2023-04-18T20:41:47.310Z,10.77
2023-04-18T20:46:39.974Z,10.27
2023-04-18T20:51:34.320Z,12.43
2023-04-18T20:56:28.468Z,9.80
2023-04-18T21:01:21.555Z,9.93
2023-04-18T21:06:14.125Z,10.20
2023-04-18T21:11:06.891Z,10.40
2023-04-18T21:16:03.147Z,9.90
2023-04-18T21:20:55.816Z,10.97
2023-04-18T21:25:48.408Z,11.50
2023-04-18T21:30:41.043Z,11.20
2023-04-18T21:35:34.977Z,10.47
2023-04-18T21:40:30.542Z,10.50
2023-04-18T21:45:23.369Z,11.10
2023-04-18T21:50:16.021Z,10.33
2023-04-18T21:55:10.390Z,10.50
2023-04-18T22:00:03.078Z,10.83
2023-04-18T22:05:01.496Z,10.10
2023-04-18T22:09:54.026Z,10.77
2023-04-18T22:14:48.986Z,10.47
2023-04-18T22:19:41.558Z,10.83
2023-04-18T22:24:34.118Z,11.00
2023-04-18T22:29:26.827Z,12.57
2023-04-18T22:34:20.791Z,11.27
2023-04-18T22:39:13.405Z,11.93
2023-04-18T22:44:06.129Z,12.33
2023-04-18T22:48:58.723Z,12.30
2023-04-18T22:53:52.594Z,12.00
2023-04-18T22:58:45.257Z,11.33
2023-04-18T23:03:38.150Z,12.80
2023-04-18T23:08:31.510Z,12.63
2023-04-18T23:13:25.447Z,11.50
2023-04-18T23:18:18.016Z,11.60
2023-04-18T23:23:10.753Z,11.63
2023-04-18T23:28:03.356Z,12.10
2023-04-18T23:32:57.352Z,12.37
2023-04-18T23:37:50.162Z,12.50
2023-04-18T23:42:43.068Z,11.57
2023-04-18T23:47:35.653Z,12.10
2023-04-18T23:52:29.711Z,12.50
2023-04-18T23:57:22.252Z,13.40
